Time;durP1;ratioP1;P1;durP2;ratioP2;P2;SDS_P1;SDS_P2;PMS_P1;PMS_P2;Temp;Humidity;BMP_temperature;BMP_pressure;BME280_temperature;BME280_humidity;BME280_pressure;Samples;Min_cycle;Max_cycle;Signal;HPM_P1;HPM_P2
2022/05/20 03:37:19;;;;;;;3.97;2.65;;;;;;;-145.06;100.00;60892.56;5592348;23;20123;-93
2022/05/20 03:40:10;;;;;;;3.00;2.38;;;;;;;-145.06;100.00;60892.56;4841982;28;20041;-93
2022/05/20 03:43:27;;;;;;;3.00;2.35;;;;;;;-145.06;100.00;60892.56;4826737;28;20030;-92
2022/05/20 03:46:08;;;;;;;3.25;2.63;;;;;;;-145.06;100.00;60892.56;4840976;28;20440;-92
2022/05/20 03:48:49;;;;;;;4.10;2.95;;;;;;;18.39;100.00;60892.56;4833263;28;20464;-92
2022/05/20 03:51:28;;;;;;;4.28;3.10;;;;;;;-145.06;100.00;60892.56;4835203;28;20357;-91
2022/05/20 03:54:08;;;;;;;4.07;2.40;;;;;;;-145.06;100.00;60892.56;4834612;28;20025;-91
2022/05/20 03:56:47;;;;;;;4.72;2.95;;;;;;;-145.06;100.00;60892.56;4826583;28;20033;-93
2022/05/20 03:59:27;;;;;;;3.10;2.50;;;;;;;-145.06;100.00;60892.56;4822648;28;20062;-91
2022/05/20 04:02:07;;;;;;;;;;;;;;;-145.06;100.00;60892.56;4817100;28;20280;-91
2022/05/20 04:04:50;;;;;;;3.28;2.08;;;;;;;-145.06;100.00;60892.56;4840164;28;19914;-92
2022/05/20 04:07:29;;;;;;;2.92;2.53;;;;;;;-145.06;100.00;60892.56;4840585;28;20029;-92
2022/05/20 04:10:12;;;;;;;4.70;2.65;;;;;;;-145.06;100.00;60892.56;4832423;28;20029;-91
2022/05/20 04:12:51;;;;;;;3.60;2.80;;;;;;;18.39;100.00;60892.56;4839709;28;20030;-91
2022/05/20 04:15:30;;;;;;;3.40;2.50;;;;;;;-145.06;100.00;60892.56;4825644;28;20061;-91
2022/05/20 04:18:09;;;;;;;3.47;2.80;;;;;;;-145.06;100.00;60892.56;4820760;28;20034;-91
2022/05/20 04:20:49;;;;;;;3.83;2.90;;;;;;;-145.06;100.00;60892.56;4825504;28;20030;-90
2022/05/20 04:23:27;;;;;;;;;;;;;;;-145.06;100.00;60892.56;4820609;28;20034;-91
2022/05/20 04:26:07;;;;;;;3.58;2.35;;;;;;;-145.06;100.00;60892.56;4816496;28;19914;-91
2022/05/20 04:28:47;;;;;;;3.20;2.65;;;;;;;-145.06;100.00;60892.56;4828112;28;20025;-92
2022/05/20 04:31:26;;;;;;;3.95;2.60;;;;;;;-145.06;100.00;60892.56;4819050;28;20459;-91
2022/05/20 04:34:04;;;;;;;3.57;2.90;;;;;;;-145.06;100.00;60892.56;4831745;28;20042;-93
2022/05/20 04:36:44;;;;;;;4.22;3.17;;;;;;;18.47;100.00;60892.56;4825509;28;20030;-91
2022/05/20 04:39:23;;;;;;;4.10;3.05;;;;;;;-145.06;100.00;60892.56;4829920;28;20116;-90
2022/05/20 04:48:00;;;;;;;3.80;2.88;;;;;;;-145.06;100.00;60892.56;4837438;28;20030;-91
2022/05/20 04:50:40;;;;;;;5.03;3.42;;;;;;;-145.06;100.00;60892.56;4824713;28;20030;-91
2022/05/20 04:56:17;;;;;;;4.03;2.70;;;;;;;19.78;100.00;60892.56;4838192;28;20021;-91
2022/05/20 04:58:55;;;;;;;4.53;3.17;;;;;;;-145.06;100.00;60892.56;4824362;28;20034;-91
2022/05/20 05:09:57;;;;;;;;;;;;;;;;;;;;;
2022/05/20 06:10:22;;;;;;;5.50;4.10;;;;;;;-145.06;100.00;60892.56;5796776;23;20017;-91
2022/05/20 11:04:27;;;;;;;;;;;;;;;;;;;;;
2022/05/20 11:07:06;;;;;;;4.18;3.72;;;;;;;-145.06;100.00;60892.56;4835272;28;20046;-92
2022/05/20 11:13:29;;;;;;;4.15;3.28;;;;;;;-145.06;100.00;60892.56;4822867;28;20034;-93
2022/05/20 11:17:19;;;;;;;;;;;;;;;;;;;;;
2022/05/20 11:20:21;;;;;;;2.90;2.50;;;;;;;-145.06;100.00;60892.56;4735645;29;20033;-93
2022/05/20 11:27:34;;;;;;;3.08;2.50;;;;;;;-145.06;100.00;60892.56;4725799;29;20044;-93
2022/05/20 11:30:19;;;;;;;3.42;2.80;;;;;;;-145.06;100.00;60892.56;4721697;28;20043;-93
2022/05/20 11:33:04;;;;;;;3.08;2.50;;;;;;;-145.06;100.00;60892.56;4827441;28;20038;-94
2022/05/20 11:35:49;;;;;;;3.35;2.80;;;;;;;-145.06;100.00;60892.56;4806647;28;20369;-93
2022/05/20 11:39:06;;;;;;;3.78;2.85;;;;;;;-145.06;100.00;60892.56;4813201;28;20109;-92
2022/05/20 13:55:53;;;;;;;0.93;0.60;;;;;;;-145.06;100.00;60892.56;5156662;23;20155;-94
2022/05/20 13:58:43;;;;;;;0.60;0.60;;;;;;;-145.06;100.00;60892.56;4793552;28;20042;-93
2022/05/20 14:01:42;;;;;;;1.20;0.80;;;;;;;-145.06;100.00;60892.56;4805240;28;20030;-92
2022/05/20 14:19:27;;;;;;;;;;;;;;;;;;;;;
2022/05/20 14:22:35;;;;;;;1.75;0.82;;;;;;;-145.06;100.00;60892.56;4692822;29;20050;-93
2022/05/20 14:25:30;;;;;;;0.90;0.70;;;;;;;-145.06;100.00;60892.56;4696877;29;20056;-91
2022/05/20 14:28:20;;;;;;;0.98;0.63;;;;;;;-145.06;100.00;60892.56;4766773;28;20039;-91
2022/05/20 14:30:59;;;;;;;0.60;0.57;;;;;;;-145.06;100.00;60892.56;4794949;28;20054;-92
2022/05/20 14:33:46;;;;;;;0.80;0.80;;;;;;;-145.06;100.00;60892.56;4791163;28;20031;-93
2022/05/20 14:36:27;;;;;;;0.70;0.70;;;;;;;-145.06;100.00;60892.56;4799827;28;20030;-92
2022/05/20 14:59:47;;;;;;;0.73;0.50;;;;;;;-145.06;100.00;60892.56;4810644;28;20062;-94
2022/05/20 15:02:35;;;;;;;1.75;0.80;;;;;;;-145.06;100.00;60892.56;4803985;28;20030;-92
2022/05/20 15:05:14;;;;;;;1.17;0.75;;;;;;;-145.06;100.00;60892.56;4778047;29;20110;-94
2022/05/20 15:08:22;;;;;;;;;;;;;;;-145.06;100.00;60892.56;4771401;29;20031;-94
2022/05/20 15:11:15;;;;;;;0.57;0.57;;;;;;;-145.06;100.00;60892.56;4782188;28;19910;-92
2022/05/20 15:13:54;;;;;;;0.93;0.50;;;;;;;-145.06;100.00;60892.56;4802602;28;20465;-94
2022/05/20 15:16:33;;;;;;;1.67;0.90;;;;;;;-145.06;100.00;60892.56;4769627;29;20513;-94
2022/05/20 15:19:13;;;;;;;0.90;0.60;;;;;;;-145.06;100.00;60892.56;4781448;28;20386;-93
2022/05/20 15:21:54;;;;;;;0.60;0.60;;;;;;;-145.06;100.00;60892.56;4778559;28;20035;-92
2022/05/20 15:24:33;;;;;;;0.95;0.70;;;;;;;-145.06;100.00;60892.56;4791196;28;20031;-92
2022/05/20 15:27:24;;;;;;;1.17;0.57;;;;;;;-145.06;100.00;60892.56;4798885;28;20106;-94
2022/05/20 15:58:25;;;;;;;;;;;;;;;;;;;;;
2022/05/20 16:01:32;;;;;;;0.73;0.68;;;;;;;-145.06;100.00;60892.56;4736693;29;20028;-92
2022/05/20 16:08:19;;;;;;;1.30;0.70;;;;;;;-145.06;100.00;60892.56;4826062;28;20034;-93
